Time;durP1;ratioP1;P1;durP2;ratioP2;P2;SDS_P1;SDS_P2;PMS_P1;PMS_P2;Temp;Humidity;BMP_temperature;BMP_pressure;BME280_temperature;BME280_humidity;BME280_pressure;Samples;Min_cycle;Max_cycle;Signal;HPM_P1;HPM_P2
2024/01/14 00:02:34;;;;;;;9.90;8.00;;;;;;;1.47;92.41;99025.14;112894;241;39532;-69
2024/01/14 00:05:09;;;;;;;9.80;8.00;;;;;;;1.48;92.49;99025.30;112862;241;40576;-70
2024/01/14 00:07:43;;;;;;;9.30;8.20;;;;;;;1.49;92.48;99020.98;112854;241;39529;-68
2024/01/14 00:10:17;;;;;;;10.20;8.70;;;;;;;1.48;92.56;99017.73;112875;241;38810;-68
2024/01/14 00:12:51;;;;;;;10.80;8.60;;;;;;;1.45;92.59;99015.05;112903;241;38401;-69
2024/01/14 00:15:24;;;;;;;9.30;8.30;;;;;;;1.43;92.58;99012.85;112873;241;38294;-69
2024/01/14 00:17:58;;;;;;;7.50;6.70;;;;;;;1.44;92.47;99008.89;112863;241;40411;-69
2024/01/14 00:20:32;;;;;;;9.10;7.70;;;;;;;1.46;92.57;99004.88;112878;241;39189;-69
2024/01/14 00:23:06;;;;;;;9.50;8.50;;;;;;;1.49;92.74;98999.83;112840;241;39070;-69
2024/01/14 00:25:39;;;;;;;8.80;7.50;;;;;;;1.48;92.70;98992.81;112151;241;912497;-69
2024/01/14 00:28:13;;;;;;;9.50;8.10;;;;;;;1.44;92.69;98995.65;112878;241;39548;-69
2024/01/14 00:30:47;;;;;;;8.90;7.30;;;;;;;1.45;92.81;98991.50;112861;241;38817;-69
2024/01/14 00:33:20;;;;;;;9.30;7.70;;;;;;;1.48;92.84;98984.90;112866;241;39125;-68
2024/01/14 00:35:55;;;;;;;9.70;7.90;;;;;;;1.52;92.76;98979.48;112878;241;39674;-68
2024/01/14 00:38:29;;;;;;;9.00;8.00;;;;;;;1.50;92.67;98973.68;112913;241;38560;-69
2024/01/14 00:41:02;;;;;;;9.40;8.40;;;;;;;1.47;92.66;98975.14;112887;241;38249;-70
2024/01/14 00:43:36;;;;;;;8.30;7.30;;;;;;;1.45;92.83;98971.58;112885;241;38247;-68
2024/01/14 00:46:10;;;;;;;10.90;8.50;;;;;;;1.46;92.78;98966.73;112895;241;38400;-68
2024/01/14 00:48:44;;;;;;;7.40;6.60;;;;;;;1.48;92.88;98962.74;112855;241;38502;-68
2024/01/14 00:51:17;;;;;;;8.80;7.10;;;;;;;1.52;92.81;98965.05;112881;241;39099;-68
2024/01/14 00:53:51;;;;;;;9.00;8.00;;;;;;;1.54;92.93;98955.55;112861;241;39394;-69
2024/01/14 00:56:25;;;;;;;9.00;8.00;;;;;;;1.53;92.90;98953.52;112881;241;38854;-69
2024/01/14 00:59:00;;;;;;;9.90;8.50;;;;;;;1.51;92.91;98946.69;112876;241;38472;-70
2024/01/14 01:01:33;;;;;;;11.30;8.30;;;;;;;1.46;92.89;98943.38;112852;241;39626;-68
2024/01/14 01:04:07;;;;;;;8.50;7.40;;;;;;;1.44;92.91;98941.35;112861;241;38312;-68
2024/01/14 01:06:41;;;;;;;8.60;7.40;;;;;;;1.43;92.87;98934.16;112900;241;38761;-69
2024/01/14 01:09:15;;;;;;;8.30;7.50;;;;;;;1.44;92.79;98934.14;112856;241;39709;-70
2024/01/14 01:11:49;;;;;;;9.50;8.50;;;;;;;1.47;93.12;98925.14;112869;241;38414;-69
2024/01/14 01:14:23;;;;;;;8.70;7.70;;;;;;;1.48;93.22;98917.36;112840;241;38340;-69
2024/01/14 01:16:56;;;;;;;10.30;8.20;;;;;;;1.46;93.28;98918.77;112904;241;38539;-68
2024/01/14 01:19:30;;;;;;;8.10;7.20;;;;;;;1.47;93.17;98910.68;112892;241;38906;-68
2024/01/14 01:22:04;;;;;;;8.30;7.10;;;;;;;1.47;93.17;98911.73;112870;241;38539;-68
2024/01/14 01:24:40;;;;;;;8.30;6.80;;;;;;;1.52;93.37;98912.30;112903;241;38562;-68
2024/01/14 01:27:14;;;;;;;8.70;7.60;;;;;;;1.54;93.21;98905.38;112938;241;39571;-70
2024/01/14 01:29:48;;;;;;;9.30;8.00;;;;;;;1.52;93.15;98901.46;112879;241;40341;-70
2024/01/14 01:32:21;;;;;;;11.20;8.40;;;;;;;1.52;93.37;98898.89;112934;241;39463;-69
2024/01/14 01:34:55;;;;;;;9.20;7.50;;;;;;;1.53;93.32;98895.77;112875;241;38857;-69
2024/01/14 01:37:29;;;;;;;8.10;7.30;;;;;;;1.57;93.40;98890.51;112897;241;38251;-70
2024/01/14 01:40:03;;;;;;;9.40;8.30;;;;;;;1.62;93.34;98886.95;112845;241;39719;-70
2024/01/14 01:42:37;;;;;;;9.10;8.20;;;;;;;1.64;93.34;98882.97;112878;241;38508;-69
2024/01/14 01:45:12;;;;;;;9.80;8.50;;;;;;;1.63;93.20;98882.97;112742;241;172616;-69
2024/01/14 01:47:45;;;;;;;10.90;8.50;;;;;;;1.62;93.23;98880.08;112868;241;38461;-69
2024/01/14 01:50:19;;;;;;;8.60;7.30;;;;;;;1.61;93.28;98869.62;112874;241;39236;-69
2024/01/14 01:52:53;;;;;;;8.10;7.30;;;;;;;1.62;93.11;98867.36;112848;241;38326;-69
2024/01/14 01:55:27;;;;;;;7.90;7.10;;;;;;;1.63;93.12;98865.80;112861;241;38681;-70
2024/01/14 01:58:01;;;;;;;9.70;8.00;;;;;;;1.65;93.29;98861.25;112888;241;38427;-69
2024/01/14 02:00:36;;;;;;;9.20;8.20;;;;;;;1.67;93.31;98859.65;112861;241;39536;-69
2024/01/14 02:03:09;;;;;;;8.30;7.40;;;;;;;1.67;93.38;98850.20;112903;241;38247;-70
2024/01/14 02:05:44;;;;;;;8.70;7.80;;;;;;;1.67;93.17;98847.44;112875;241;38806;-70
2024/01/14 02:08:18;;;;;;;8.00;6.90;;;;;;;1.67;93.13;98840.40;112912;241;39015;-69
2024/01/14 02:10:52;;;;;;;8.40;7.10;;;;;;;1.70;93.14;98840.33;112883;241;38874;-70
2024/01/14 02:13:25;;;;;;;8.40;7.50;;;;;;;1.71;92.99;98837.56;112914;241;38553;-69
2024/01/14 02:15:59;;;;;;;8.60;7.70;;;;;;;1.71;93.27;98837.70;112911;241;39305;-68
2024/01/14 02:18:33;;;;;;;9.00;8.10;;;;;;;1.70;93.15;98829.33;112903;241;38812;-70
2024/01/14 02:21:08;;;;;;;9.60;7.20;;;;;;;1.68;93.07;98829.91;112850;241;38560;-70
2024/01/14 02:23:42;;;;;;;7.60;6.90;;;;;;;1.67;93.04;98831.14;112856;241;38737;-68
2024/01/14 02:26:16;;;;;;;8.50;7.20;;;;;;;1.70;93.12;98830.36;112874;241;38743;-69
2024/01/14 02:28:50;;;;;;;7.90;7.10;;;;;;;1.72;93.26;98830.46;112881;241;39542;-68
2024/01/14 02:31:23;;;;;;;8.70;7.60;;;;;;;1.71;93.22;98823.96;112888;241;38377;-68
2024/01/14 02:33:58;;;;;;;8.10;7.20;;;;;;;1.71;93.32;98820.52;112813;241;40013;-68
2024/01/14 02:36:32;;;;;;;7.70;6.80;;;;;;;1.71;93.16;98814.84;112877;241;38601;-68
2024/01/14 02:39:06;;;;;;;8.50;7.10;;;;;;;1.72;93.22;98811.39;112869;241;38724;-68
2024/01/14 02:41:40;;;;;;;9.20;6.90;;;;;;;1.75;93.13;98808.73;112858;241;39989;-68
2024/01/14 02:44:13;;;;;;;8.40;7.50;;;;;;;1.76;93.17;98804.58;112850;241;39059;-68
2024/01/14 02:46:47;;;;;;;9.10;7.50;;;;;;;1.77;93.26;98805.23;112880;241;38815;-68
2024/01/14 02:49:21;;;;;;;9.20;7.40;;;;;;;1.76;93.10;98799.26;112747;241;175172;-68
2024/01/14 02:51:55;;;;;;;7.20;6.50;;;;;;;1.75;92.97;98796.71;112890;241;39481;-69
2024/01/14 02:54:28;;;;;;;7.20;6.50;;;;;;;1.80;93.22;98795.19;112791;241;172542;-70
2024/01/14 02:57:02;;;;;;;8.10;6.70;;;;;;;1.84;93.10;98793.54;112924;241;38236;-68
2024/01/14 02:59:37;;;;;;;8.10;7.00;;;;;;;1.85;93.06;98792.97;112890;241;39016;-68
2024/01/14 03:02:11;;;;;;;7.80;7.00;;;;;;;1.88;93.12;98785.16;112932;241;38749;-69
2024/01/14 03:04:45;;;;;;;7.90;6.40;;;;;;;1.88;92.97;98783.28;112922;241;38838;-69
2024/01/14 03:07:19;;;;;;;9.20;7.00;;;;;;;1.84;92.64;98785.62;112900;241;38818;-69
2024/01/14 03:09:53;;;;;;;8.20;6.00;;;;;;;1.84;92.64;98774.80;112915;241;38392;-69
2024/01/14 03:12:26;;;;;;;7.40;6.40;;;;;;;1.86;92.64;98775.08;112878;241;38237;-69
2024/01/14 03:15:00;;;;;;;7.00;6.30;;;;;;;1.86;92.62;98775.58;112879;241;38476;-69
2024/01/14 03:17:34;;;;;;;8.60;7.50;;;;;;;1.85;92.51;98773.73;112888;241;40066;-69
2024/01/14 03:20:09;;;;;;;8.20;7.00;;;;;;;1.79;92.48;98778.19;112858;241;39203;-70
2024/01/14 03:22:43;;;;;;;7.10;5.90;;;;;;;1.80;92.59;98768.54;112847;241;38857;-69
2024/01/14 03:25:17;;;;;;;9.50;6.00;;;;;;;1.82;92.61;98769.33;112862;241;38764;-69
2024/01/14 03:27:50;;;;;;;6.70;5.90;;;;;;;1.87;92.73;98769.20;112883;241;38352;-68
2024/01/14 03:30:24;;;;;;;7.50;6.30;;;;;;;1.86;92.38;98762.52;112848;241;39157;-68
2024/01/14 03:32:58;;;;;;;8.00;6.30;;;;;;;1.87;92.62;98760.77;112871;241;38329;-69
2024/01/14 03:35:32;;;;;;;7.20;6.00;;;;;;;1.90;92.65;98761.21;112826;241;38641;-70
2024/01/14 03:38:06;;;;;;;7.60;6.80;;;;;;;1.87;92.47;98753.90;112861;241;39039;-68
2024/01/14 03:40:39;;;;;;;8.40;6.20;;;;;;;1.84;92.19;98753.14;112873;240;40238;-68
2024/01/14 03:43:13;;;;;;;6.10;5.50;;;;;;;1.84;92.30;98751.06;112968;240;39825;-69
2024/01/14 03:45:47;;;;;;;6.60;5.60;;;;;;;1.88;92.39;98751.30;112967;240;39641;-69
2024/01/14 03:48:20;;;;;;;6.40;5.60;;;;;;;1.90;92.47;98758.64;112993;240;40008;-69
2024/01/14 03:50:54;;;;;;;7.50;6.30;;;;;;;1.89;92.54;98752.63;112999;240;38877;-69
2024/01/14 03:53:28;;;;;;;6.70;6.10;;;;;;;1.89;92.61;98752.11;112988;240;38578;-70
2024/01/14 03:56:01;;;;;;;6.80;5.30;;;;;;;1.90;92.46;98744.02;112967;240;38498;-70
2024/01/14 03:58:35;;;;;;;6.20;5.20;;;;;;;1.88;92.04;98750.77;112954;240;39919;-69
2024/01/14 04:01:13;;;;;;;5.60;5.00;;;;;;;1.90;92.17;98743.16;113012;240;38528;-69
2024/01/14 04:03:47;;;;;;;6.00;5.40;;;;;;;1.91;92.26;98740.73;112987;240;39837;-70
2024/01/14 04:06:24;;;;;;;6.60;5.60;;;;;;;1.92;92.53;98739.48;112983;240;38801;-69
2024/01/14 04:08:58;;;;;;;6.70;5.50;;;;;;;1.93;92.45;98736.87;112952;240;38287;-70
2024/01/14 04:11:32;;;;;;;6.10;5.50;;;;;;;1.92;92.32;98733.98;112840;240;38655;-68
2024/01/14 04:14:06;;;;;;;6.20;5.50;;;;;;;1.91;92.21;98737.98;112927;240;38745;-68
2024/01/14 04:16:43;;;;;;;6.90;5.60;;;;;;;1.90;92.07;98733.84;112955;240;40060;-68
2024/01/14 04:19:16;;;;;;;5.80;5.20;;;;;;;1.90;91.95;98731.80;112940;240;39370;-68
2024/01/14 04:21:50;;;;;;;6.10;4.90;;;;;;;1.90;92.03;98733.00;113004;240;38435;-69
2024/01/14 04:24:24;;;;;;;6.60;5.90;;;;;;;1.92;92.14;98729.68;112866;240;172700;-70
2024/01/14 04:26:58;;;;;;;6.80;5.60;;;;;;;1.91;92.13;98727.63;112952;240;38277;-68
2024/01/14 04:29:31;;;;;;;6.00;4.90;;;;;;;1.92;91.94;98723.84;112969;240;39273;-68
2024/01/14 04:32:06;;;;;;;5.80;5.10;;;;;;;1.92;91.91;98723.14;112885;240;38875;-68
2024/01/14 04:34:40;;;;;;;6.40;4.70;;;;;;;1.96;92.02;98720.44;112815;240;172590;-69
2024/01/14 04:37:14;;;;;;;8.20;5.20;;;;;;;1.99;91.93;98717.77;112960;240;39949;-69
2024/01/14 04:39:48;;;;;;;6.40;5.20;;;;;;;1.98;91.91;98714.02;112985;240;38365;-70
2024/01/14 04:42:22;;;;;;;6.10;5.40;;;;;;;1.97;91.94;98713.88;112949;240;39454;-68
2024/01/14 04:44:56;;;;;;;6.90;5.30;;;;;;;1.95;91.87;98709.98;112945;240;38308;-68
2024/01/14 04:47:29;;;;;;;5.50;4.90;;;;;;;1.92;91.71;98707.67;112930;240;38819;-70
2024/01/14 04:50:03;;;;;;;5.90;4.40;;;;;;;1.92;91.69;98712.33;112947;240;39781;-69
2024/01/14 04:52:36;;;;;;;4.60;4.20;;;;;;;1.94;91.75;98712.93;112829;240;175201;-69
2024/01/14 04:55:10;;;;;;;5.70;4.50;;;;;;;1.97;91.94;98708.20;112959;240;38890;-69
2024/01/14 04:57:45;;;;;;;5.50;4.90;;;;;;;2.00;91.94;98702.63;112911;240;38290;-68
2024/01/14 05:00:20;;;;;;;5.90;5.40;;;;;;;1.97;91.73;98697.55;112930;240;38882;-68
2024/01/14 05:02:54;;;;;;;5.10;4.60;;;;;;;1.94;91.68;98700.38;112948;240;38430;-68
2024/01/14 05:05:28;;;;;;;5.30;4.10;;;;;;;1.91;91.54;98700.98;112624;240;347911;-69
2024/01/14 05:08:02;;;;;;;4.90;3.90;;;;;;;1.91;91.39;98700.46;112903;240;39751;-69
2024/01/14 05:10:36;;;;;;;4.50;4.10;;;;;;;1.91;91.49;98699.96;112913;240;38343;-69
2024/01/14 05:13:11;;;;;;;5.20;4.70;;;;;;;1.92;91.56;98698.38;112887;241;41582;-68
2024/01/14 05:15:45;;;;;;;5.60;5.10;;;;;;;1.89;91.49;98698.46;112915;241;38794;-68
2024/01/14 05:18:23;;;;;;;5.90;5.40;;;;;;;1.86;91.64;98697.54;112949;241;38434;-69
2024/01/14 05:20:57;;;;;;;5.80;5.20;;;;;;;1.83;91.73;98697.96;112976;240;39651;-70
2024/01/14 05:23:34;;;;;;;5.30;4.80;;;;;;;1.80;91.59;98700.27;112926;241;38312;-69
2024/01/14 05:26:09;;;;;;;5.90;5.20;;;;;;;1.82;91.75;98698.15;112888;241;38218;-69
2024/01/14 05:28:45;;;;;;;5.50;5.00;;;;;;;1.85;91.81;98697.05;112867;241;38432;-70
2024/01/14 05:31:19;;;;;;;6.20;5.10;;;;;;;1.88;91.93;98696.09;112866;241;39294;-69
2024/01/14 05:33:54;;;;;;;5.80;5.30;;;;;;;1.88;91.97;98697.48;112865;241;38618;-68
2024/01/14 05:36:30;;;;;;;6.40;5.80;;;;;;;1.87;92.01;98695.09;112868;240;38301;-68
2024/01/14 05:39:07;;;;;;;6.10;5.50;;;;;;;1.85;91.95;98688.11;112774;240;175185;-69
2024/01/14 05:41:43;;;;;;;6.50;5.40;;;;;;;1.82;91.78;98689.21;112863;240;38387;-69
2024/01/14 05:44:17;;;;;;;5.70;5.00;;;;;;;1.81;91.83;98692.52;112224;240;909536;-70
2024/01/14 05:46:51;;;;;;;5.20;4.70;;;;;;;1.82;91.82;98690.75;112958;240;38398;-70
2024/01/14 05:49:26;;;;;;;6.00;5.50;;;;;;;1.84;92.08;98691.92;112924;240;38549;-70
2024/01/14 05:52:00;;;;;;;6.00;5.40;;;;;;;1.86;92.11;98693.56;112952;241;38468;-70
2024/01/14 05:54:34;;;;;;;6.70;6.10;;;;;;;1.85;92.20;98689.48;112981;240;38332;-70
2024/01/14 05:57:08;;;;;;;6.30;5.70;;;;;;;1.84;92.26;98686.61;112945;241;38256;-68
2024/01/14 05:59:42;;;;;;;5.60;4.90;;;;;;;1.84;92.09;98686.09;113025;241;38504;-68
2024/01/14 06:02:16;;;;;;;5.70;4.80;;;;;;;1.83;92.04;98685.41;113070;241;38281;-69
2024/01/14 06:04:50;;;;;;;5.10;4.60;;;;;;;1.86;92.00;98683.08;113032;240;38732;-69
2024/01/14 06:07:24;;;;;;;7.30;5.20;;;;;;;1.87;92.02;98681.14;113072;240;38496;-69
2024/01/14 06:10:02;;;;;;;6.00;5.00;;;;;;;1.87;92.13;98678.23;113029;240;39469;-69
2024/01/14 06:12:36;;;;;;;6.00;5.00;;;;;;;1.87;92.12;98676.69;113041;240;40205;-69
2024/01/14 06:15:12;;;;;;;5.90;5.20;;;;;;;1.85;92.14;98679.16;113057;241;38327;-70
2024/01/14 06:17:47;;;;;;;5.20;4.50;;;;;;;1.85;92.11;98670.91;113042;241;38250;-68
2024/01/14 06:20:22;;;;;;;6.30;4.70;;;;;;;1.86;91.84;98669.69;113009;240;39517;-69
2024/01/14 06:22:56;;;;;;;4.90;4.20;;;;;;;1.85;91.81;98668.32;113021;241;39077;-68
2024/01/14 06:25:31;;;;;;;5.70;4.70;;;;;;;1.84;91.76;98668.70;113036;241;40276;-68
2024/01/14 06:28:08;;;;;;;5.50;4.90;;;;;;;1.84;92.10;98666.14;113074;240;39454;-69
2024/01/14 06:30:42;;;;;;;5.60;5.00;;;;;;;1.85;92.23;98669.03;113012;241;38347;-69
2024/01/14 06:33:16;;;;;;;4.90;4.30;;;;;;;1.85;92.10;98673.33;113040;241;38238;-70
2024/01/14 06:35:50;;;;;;;4.30;3.90;;;;;;;1.85;91.99;98668.52;113049;241;38433;-70
2024/01/14 06:38:23;;;;;;;4.80;4.30;;;;;;;1.87;92.07;98678.39;113015;241;38507;-69
2024/01/14 06:40:57;;;;;;;4.60;4.10;;;;;;;1.88;92.07;98674.79;113035;241;38230;-68
2024/01/14 06:43:31;;;;;;;5.10;4.60;;;;;;;1.88;92.13;98677.17;113044;240;38558;-69
2024/01/14 06:46:07;;;;;;;5.30;4.80;;;;;;;1.84;92.00;98679.89;113006;240;39541;-69
2024/01/14 06:48:41;;;;;;;4.40;3.90;;;;;;;1.83;92.06;98681.81;113023;241;38299;-69
2024/01/14 06:51:16;;;;;;;4.00;3.60;;;;;;;1.85;92.21;98680.52;113014;240;39188;-69
2024/01/14 06:53:50;;;;;;;4.70;4.30;;;;;;;1.90;92.23;98679.86;113025;241;38648;-70
2024/01/14 06:56:25;;;;;;;4.80;4.40;;;;;;;1.91;92.13;98676.58;113030;241;38540;-70
2024/01/14 06:58:59;;;;;;;5.10;4.60;;;;;;;1.90;92.13;98682.80;113030;241;38465;-68
2024/01/14 07:01:33;;;;;;;5.20;4.70;;;;;;;1.89;92.29;98684.88;113061;241;39471;-69
2024/01/14 07:04:08;;;;;;;5.10;4.60;;;;;;;1.87;92.15;98686.84;112977;241;38417;-68
2024/01/14 07:06:43;;;;;;;5.00;3.70;;;;;;;1.85;92.09;98685.70;112871;240;40155;-68
2024/01/14 07:09:18;;;;;;;4.20;3.80;;;;;;;1.86;92.15;98688.23;112958;240;38311;-68
2024/01/14 07:11:53;;;;;;;4.10;3.70;;;;;;;1.90;92.22;98688.31;112970;240;39565;-68
2024/01/14 07:14:27;;;;;;;4.70;4.30;;;;;;;1.91;92.19;98686.71;112852;240;40079;-68
2024/01/14 07:17:01;;;;;;;4.50;4.10;;;;;;;1.92;92.27;98690.99;112895;240;38276;-68
2024/01/14 07:19:35;;;;;;;4.80;4.30;;;;;;;1.91;92.16;98690.34;112861;240;39284;-69
2024/01/14 07:22:09;;;;;;;5.30;4.30;;;;;;;1.89;92.08;98691.42;112943;240;38693;-68
2024/01/14 07:24:42;;;;;;;4.30;3.90;;;;;;;1.90;92.16;98688.83;113050;240;38428;-68
2024/01/14 07:27:16;;;;;;;4.40;4.00;;;;;;;1.92;92.07;98691.86;113050;240;38848;-68
2024/01/14 07:29:52;;;;;;;4.70;4.30;;;;;;;1.91;92.05;98686.55;113020;240;38517;-68
2024/01/14 07:32:26;;;;;;;5.20;4.70;;;;;;;1.91;92.17;98688.77;113037;240;38418;-69
2024/01/14 07:35:01;;;;;;;5.80;4.90;;;;;;;1.90;92.18;98688.64;113008;240;39029;-69
2024/01/14 07:37:36;;;;;;;6.10;4.50;;;;;;;1.88;92.04;98687.67;112960;240;38554;-69
2024/01/14 07:40:12;;;;;;;4.40;4.00;;;;;;;1.89;91.99;98689.89;112911;240;38927;-69
2024/01/14 07:42:46;;;;;;;4.80;4.30;;;;;;;1.91;92.12;98687.75;112897;240;38734;-69
2024/01/14 07:45:27;;;;;;;5.40;4.80;;;;;;;1.96;92.41;98682.61;112894;240;39002;-69
2024/01/14 07:48:05;;;;;;;5.10;4.50;;;;;;;1.98;92.30;98686.85;112904;240;39733;-69
2024/01/14 07:50:42;;;;;;;5.50;4.90;;;;;;;1.97;92.13;98686.19;112912;240;40864;-69
2024/01/14 07:53:18;;;;;;;5.60;5.00;;;;;;;1.96;92.21;98685.70;112972;240;38842;-69
2024/01/14 07:55:52;;;;;;;5.80;4.20;;;;;;;1.94;92.17;98691.44;112949;240;38245;-68
2024/01/14 07:58:26;;;;;;;5.80;4.00;;;;;;;1.97;92.16;98692.21;112989;240;40002;-68
2024/01/14 08:01:00;;;;;;;5.50;4.40;;;;;;;2.00;92.20;98690.38;112979;240;39640;-68
2024/01/14 08:03:35;;;;;;;4.80;4.10;;;;;;;2.03;92.11;98690.83;112875;240;38263;-70
2024/01/14 08:06:11;;;;;;;5.50;4.80;;;;;;;2.00;91.92;98689.17;113007;240;38302;-70
2024/01/14 08:08:45;;;;;;;4.90;4.30;;;;;;;1.99;92.01;98689.90;113041;240;38218;-70
2024/01/14 08:11:20;;;;;;;5.30;4.00;;;;;;;2.00;91.88;98693.67;112892;240;38044;-69
2024/01/14 08:13:54;;;;;;;5.70;3.60;;;;;;;2.00;91.98;98687.64;112878;240;39394;-69
2024/01/14 08:16:28;;;;;;;5.70;4.00;;;;;;;2.05;92.07;98682.16;113029;240;38375;-69
2024/01/14 08:19:03;;;;;;;6.10;4.90;;;;;;;2.07;91.92;98680.75;112971;240;39771;-68
2024/01/14 08:21:38;;;;;;;4.90;4.40;;;;;;;2.06;91.87;98681.77;112994;240;38198;-69
2024/01/14 08:24:13;;;;;;;5.40;4.80;;;;;;;2.07;91.95;98687.63;112993;240;38383;-68
2024/01/14 08:26:48;;;;;;;6.00;5.10;;;;;;;2.06;92.03;98689.70;113010;240;38878;-68
2024/01/14 08:29:22;;;;;;;4.70;4.30;;;;;;;2.08;91.93;98691.91;112976;240;39771;-69
2024/01/14 08:31:56;;;;;;;4.50;4.00;;;;;;;2.08;91.75;98689.50;112914;240;40035;-69
2024/01/14 08:34:31;;;;;;;6.60;4.70;;;;;;;2.11;91.89;98692.31;112912;240;38653;-70
2024/01/14 08:37:06;;;;;;;5.30;4.80;;;;;;;2.11;91.73;98688.35;112931;240;39658;-68
2024/01/14 08:39:40;;;;;;;4.90;4.40;;;;;;;2.10;91.79;98696.11;112933;240;38409;-68
2024/01/14 08:42:14;;;;;;;5.30;4.80;;;;;;;2.08;91.83;98695.16;112810;240;175185;-69
2024/01/14 08:44:48;;;;;;;4.90;4.00;;;;;;;2.08;91.72;98696.02;112972;240;39399;-70
2024/01/14 08:47:22;;;;;;;4.60;3.80;;;;;;;2.08;91.66;98699.63;112893;240;40522;-69
2024/01/14 08:49:55;;;;;;;4.90;4.30;;;;;;;2.12;91.74;98700.53;112259;240;911091;-70
2024/01/14 08:52:29;;;;;;;4.70;4.30;;;;;;;2.12;91.63;98700.71;113066;240;38740;-69
2024/01/14 08:55:03;;;;;;;6.60;4.80;;;;;;;2.12;91.66;98704.83;113056;240;38526;-70
2024/01/14 08:57:38;;;;;;;5.10;4.60;;;;;;;2.12;91.83;98702.95;113057;240;39327;-69
2024/01/14 09:00:14;;;;;;;5.80;5.20;;;;;;;2.11;91.75;98705.89;113044;240;38631;-70
2024/01/14 09:02:47;;;;;;;4.70;4.20;;;;;;;2.10;91.66;98709.54;113005;240;38592;-69
2024/01/14 09:05:22;;;;;;;3.90;3.50;;;;;;;2.12;91.60;98709.66;112276;240;911078;-69
2024/01/14 09:07:56;;;;;;;5.40;3.90;;;;;;;2.13;91.58;98712.05;112919;240;39218;-70
2024/01/14 09:10:29;;;;;;;5.20;4.20;;;;;;;2.18;91.91;98712.90;112898;240;38236;-69
2024/01/14 09:13:04;;;;;;;4.80;4.30;;;;;;;2.23;92.03;98711.21;112929;240;38912;-69
2024/01/14 09:15:38;;;;;;;6.60;5.00;;;;;;;2.27;92.06;98711.94;112952;241;40081;-69
2024/01/14 09:18:12;;;;;;;5.20;4.70;;;;;;;2.29;91.85;98715.14;112925;240;38499;-69
2024/01/14 09:20:46;;;;;;;4.80;4.00;;;;;;;2.30;91.61;98723.37;112918;240;40582;-70
2024/01/14 09:23:19;;;;;;;6.20;3.80;;;;;;;2.32;91.59;98720.03;112930;240;38652;-69
2024/01/14 09:25:53;;;;;;;5.00;4.30;;;;;;;2.37;91.58;98722.48;112855;241;39103;-69
2024/01/14 09:28:27;;;;;;;5.00;4.50;;;;;;;2.38;91.32;98716.06;112844;241;38528;-69
2024/01/14 09:31:01;;;;;;;5.10;4.60;;;;;;;2.38;91.35;98719.34;112909;241;38830;-68
2024/01/14 09:33:34;;;;;;;5.30;4.60;;;;;;;2.41;91.48;98723.74;112955;240;39098;-69
2024/01/14 09:36:12;;;;;;;6.70;4.60;;;;;;;2.42;91.43;98725.41;113029;240;38601;-69
2024/01/14 09:38:46;;;;;;;6.70;4.00;;;;;;;2.45;91.29;98732.02;113032;240;38296;-68
2024/01/14 09:41:29;;;;;;;5.40;3.80;;;;;;;2.45;90.75;98727.02;113031;240;39033;-68
2024/01/14 09:44:03;;;;;;;4.90;3.70;;;;;;;2.46;90.71;98729.42;113009;240;38705;-69
2024/01/14 09:46:36;;;;;;;6.20;4.20;;;;;;;2.49;91.00;98728.61;113028;240;39906;-69
2024/01/14 09:49:11;;;;;;;6.20;4.00;;;;;;;2.52;90.94;98726.63;113045;240;38218;-69
2024/01/14 09:51:45;;;;;;;4.80;4.00;;;;;;;2.53;90.66;98723.36;113046;240;38403;-70
2024/01/14 09:54:19;;;;;;;5.00;3.70;;;;;;;2.50;90.71;98730.31;113019;240;39400;-70
2024/01/14 09:56:53;;;;;;;5.70;3.30;;;;;;;2.53;90.63;98732.81;113023;240;38739;-68
2024/01/14 09:59:27;;;;;;;5.40;3.00;;;;;;;2.52;90.23;98731.45;113056;240;38332;-68
2024/01/14 10:02:01;;;;;;;4.20;3.00;;;;;;;2.56;90.45;98731.84;113022;240;39605;-68
2024/01/14 10:04:35;;;;;;;5.50;3.70;;;;;;;2.60;90.42;98733.78;112913;241;175136;-68
2024/01/14 10:07:09;;;;;;;6.10;4.20;;;;;;;2.60;90.29;98732.41;113047;241;39739;-69
2024/01/14 10:09:45;;;;;;;7.10;4.30;;;;;;;2.59;90.16;98730.02;112989;240;40208;-69
2024/01/14 10:12:19;;;;;;;5.90;4.00;;;;;;;2.56;90.14;98733.39;113040;241;38303;-69
2024/01/14 10:15:02;;;;;;;6.10;3.30;;;;;;;2.58;90.21;98734.38;112767;241;172644;-69
2024/01/14 10:17:36;;;;;;;3.90;3.10;;;;;;;2.61;90.09;98734.12;113055;240;39239;-70
2024/01/14 10:20:12;;;;;;;6.50;3.90;;;;;;;2.65;89.95;98732.42;113008;240;38259;-69
2024/01/14 10:22:48;;;;;;;4.90;4.00;;;;;;;2.67;89.83;98730.46;113074;241;38787;-70
2024/01/14 10:25:23;;;;;;;4.30;3.90;;;;;;;2.65;89.64;98729.33;113049;240;38421;-70
2024/01/14 10:27:57;;;;;;;5.30;3.90;;;;;;;2.63;89.56;98730.45;113062;241;39281;-70
2024/01/14 10:30:31;;;;;;;5.80;4.40;;;;;;;2.59;89.82;98735.20;113054;240;38250;-70
2024/01/14 10:33:06;;;;;;;6.00;3.90;;;;;;;2.59;90.01;98729.33;113080;240;38671;-69
2024/01/14 10:35:40;;;;;;;6.00;3.90;;;;;;;2.59;89.75;98727.60;113038;240;39939;-70
2024/01/14 10:38:14;;;;;;;5.30;3.60;;;;;;;2.64;89.93;98723.86;112897;241;39467;-70
2024/01/14 10:40:48;;;;;;;5.90;4.60;;;;;;;2.71;89.92;98723.30;113047;241;40032;-70
2024/01/14 10:43:24;;;;;;;8.10;4.80;;;;;;;2.76;90.07;98716.91;113033;240;38224;-69
2024/01/14 10:45:58;;;;;;;5.50;4.20;;;;;;;2.83;90.14;98719.62;112983;240;38282;-68
2024/01/14 10:48:32;;;;;;;8.80;4.80;;;;;;;2.82;89.86;98716.70;112990;241;38224;-70
2024/01/14 10:51:07;;;;;;;5.10;4.60;;;;;;;2.82;89.77;98716.70;112991;240;38604;-71
2024/01/14 10:53:46;;;;;;;7.80;5.00;;;;;;;2.79;89.59;98720.95;112941;240;38269;-69
2024/01/14 10:56:23;;;;;;;4.90;3.70;;;;;;;2.80;89.50;98718.51;113044;240;39813;-69
2024/01/14 10:58:56;;;;;;;5.40;3.70;;;;;;;2.81;89.15;98718.31;113005;240;38466;-69
2024/01/14 11:01:31;;;;;;;6.10;4.20;;;;;;;2.80;89.05;98720.05;113015;240;38312;-69
2024/01/14 11:04:05;;;;;;;4.30;3.60;;;;;;;2.75;88.72;98719.02;113013;240;39732;-69
2024/01/14 11:06:40;;;;;;;3.90;3.50;;;;;;;2.73;88.91;98718.58;112983;240;39616;-69
2024/01/14 11:09:14;;;;;;;4.40;3.40;;;;;;;2.72;89.20;98718.42;113040;240;38955;-68
2024/01/14 11:11:52;;;;;;;5.20;3.50;;;;;;;2.72;89.20;98719.30;112908;240;38530;-69
2024/01/14 11:14:28;;;;;;;5.60;2.90;;;;;;;2.68;89.27;98718.04;113067;240;38405;-70
2024/01/14 11:17:04;;;;;;;4.00;2.70;;;;;;;2.70;89.27;98714.36;113046;240;39498;-70
2024/01/14 11:19:39;;;;;;;4.70;3.00;;;;;;;2.70;89.07;98709.34;113058;240;38332;-70
2024/01/14 11:22:22;;;;;;;5.70;3.20;;;;;;;2.72;89.09;98709.13;113051;240;38237;-71
2024/01/14 11:24:56;;;;;;;6.20;3.50;;;;;;;2.72;89.33;98702.06;112991;240;38301;-70
2024/01/14 11:27:30;;;;;;;5.10;3.20;;;;;;;2.72;89.19;98703.10;112982;240;38429;-69
2024/01/14 11:30:04;;;;;;;4.90;3.10;;;;;;;2.68;88.90;98701.01;112972;240;39639;-69
2024/01/14 11:32:38;;;;;;;4.60;2.50;;;;;;;2.64;88.70;98696.50;112952;240;39850;-68
2024/01/14 11:35:12;;;;;;;5.40;2.70;;;;;;;2.62;88.77;98694.67;112937;240;38555;-68
2024/01/14 11:37:49;;;;;;;5.20;3.00;;;;;;;2.66;89.04;98692.29;112890;240;38444;-70
2024/01/14 11:40:29;;;;;;;5.70;3.10;;;;;;;2.66;88.74;98693.84;112900;240;38345;-70
2024/01/14 11:43:10;;;;;;;4.20;3.30;;;;;;;2.64;89.04;98699.25;112906;240;38587;-69
2024/01/14 11:45:44;;;;;;;7.10;3.60;;;;;;;2.64;89.26;98696.66;112931;240;39463;-69
2024/01/14 11:48:18;;;;;;;4.20;3.00;;;;;;;2.61;89.08;98695.04;112936;240;38508;-68
2024/01/14 11:50:52;;;;;;;4.20;2.70;;;;;;;2.63;89.30;98700.84;113004;240;38320;-68
2024/01/14 11:53:26;;;;;;;3.10;2.50;;;;;;;2.66;89.20;98699.52;112780;240;175118;-69
2024/01/14 11:56:00;;;;;;;6.40;3.30;;;;;;;2.70;89.09;98700.41;113011;240;38516;-72
2024/01/14 11:58:34;;;;;;;5.10;3.40;;;;;;;2.68;88.86;98700.33;113039;240;39794;-69
2024/01/14 12:01:08;;;;;;;5.20;3.50;;;;;;;2.65;88.77;98701.98;113066;240;38471;-69
2024/01/14 12:03:42;;;;;;;6.60;3.80;;;;;;;2.61;88.73;98698.64;113036;240;38275;-68
2024/01/14 12:06:15;;;;;;;3.80;3.10;;;;;;;2.56;88.81;98705.84;113074;240;38478;-70
2024/01/14 12:08:49;;;;;;;4.70;3.00;;;;;;;2.55;88.81;98705.70;113045;240;38422;-70
2024/01/14 12:11:24;;;;;;;5.50;3.90;;;;;;;2.57;88.87;98713.05;113060;240;38697;-68
2024/01/14 12:13:58;;;;;;;5.70;3.40;;;;;;;2.62;89.02;98715.32;113029;240;39725;-68
2024/01/14 12:16:34;;;;;;;5.10;3.50;;;;;;;2.64;88.88;98709.89;113057;240;39715;-68